sensor_id;sensor_type;location;lat;lon;timestamp;P1;durP1;ratioP1;P2;durP2;ratioP2
2259;SDS011;333;48.800;9.530;2023-06-04T00:02:15;10.40;;;9.50;;
2259;SDS011;333;48.800;9.530;2023-06-04T00:04:42;9.67;;;8.77;;
2259;SDS011;333;48.800;9.530;2023-06-04T00:07:11;9.10;;;8.30;;
2259;SDS011;333;48.800;9.530;2023-06-04T00:09:38;9.23;;;8.03;;
2259;SDS011;333;48.800;9.530;2023-06-04T00:12:05;9.23;;;8.40;;
2259;SDS011;333;48.800;9.530;2023-06-04T00:14:32;9.57;;;8.77;;
2259;SDS011;333;48.800;9.530;2023-06-04T00:17:00;9.43;;;8.53;;
2259;SDS011;333;48.800;9.530;2023-06-04T00:19:27;10.87;;;7.33;;
2259;SDS011;333;48.800;9.530;2023-06-04T00:21:54;9.33;;;8.13;;
2259;SDS011;333;48.800;9.530;2023-06-04T00:24:22;8.87;;;8.07;;
2259;SDS011;333;48.800;9.530;2023-06-04T00:26:49;9.83;;;8.87;;
2259;SDS011;333;48.800;9.530;2023-06-04T00:29:16;7.63;;;7.00;;
2259;SDS011;333;48.800;9.530;2023-06-04T00:31:43;10.57;;;8.93;;
2259;SDS011;333;48.800;9.530;2023-06-04T00:34:10;9.07;;;8.27;;
2259;SDS011;333;48.800;9.530;2023-06-04T00:36:38;8.97;;;8.17;;
2259;SDS011;333;48.800;9.530;2023-06-04T00:39:05;8.60;;;7.73;;
2259;SDS011;333;48.800;9.530;2023-06-04T00:41:34;9.57;;;8.10;;
2259;SDS011;333;48.800;9.530;2023-06-04T00:44:01;8.20;;;7.33;;
2259;SDS011;333;48.800;9.530;2023-06-04T00:46:31;9.50;;;8.03;;
2259;SDS011;333;48.800;9.530;2023-06-04T00:49:00;8.10;;;7.13;;
2259;SDS011;333;48.800;9.530;2023-06-04T00:51:28;8.63;;;7.73;;
2259;SDS011;333;48.800;9.530;2023-06-04T00:53:58;8.23;;;7.50;;
2259;SDS011;333;48.800;9.530;2023-06-04T00:56:26;8.90;;;7.10;;
2259;SDS011;333;48.800;9.530;2023-06-04T00:58:55;8.30;;;7.50;;
2259;SDS011;333;48.800;9.530;2023-06-04T01:01:27;8.20;;;7.40;;
2259;SDS011;333;48.800;9.530;2023-06-04T01:04:00;10.03;;;9.07;;
2259;SDS011;333;48.800;9.530;2023-06-04T01:06:30;12.63;;;7.30;;
2259;SDS011;333;48.800;9.530;2023-06-04T01:09:02;8.53;;;7.70;;
2259;SDS011;333;48.800;9.530;2023-06-04T01:11:31;8.63;;;7.90;;
2259;SDS011;333;48.800;9.530;2023-06-04T01:14:01;8.30;;;7.40;;
2259;SDS011;333;48.800;9.530;2023-06-04T01:16:28;7.80;;;7.10;;
2259;SDS011;333;48.800;9.530;2023-06-04T01:19:01;8.30;;;7.50;;
2259;SDS011;333;48.800;9.530;2023-06-04T01:21:33;9.20;;;8.30;;
2259;SDS011;333;48.800;9.530;2023-06-04T01:24:04;8.53;;;7.73;;
2259;SDS011;333;48.800;9.530;2023-06-04T01:26:32;8.20;;;7.40;;
2259;SDS011;333;48.800;9.530;2023-06-04T01:29:01;9.13;;;8.30;;
2259;SDS011;333;48.800;9.530;2023-06-04T01:31:29;8.50;;;7.70;;
2259;SDS011;333;48.800;9.530;2023-06-04T01:33:58;10.13;;;7.60;;
2259;SDS011;333;48.800;9.530;2023-06-04T01:36:25;8.20;;;7.40;;
2259;SDS011;333;48.800;9.530;2023-06-04T01:38:52;8.67;;;7.90;;
2259;SDS011;333;48.800;9.530;2023-06-04T01:41:19;11.50;;;7.60;;
2259;SDS011;333;48.800;9.530;2023-06-04T01:43:46;8.10;;;7.40;;
2259;SDS011;333;48.800;9.530;2023-06-04T01:46:14;8.50;;;7.40;;
2259;SDS011;333;48.800;9.530;2023-06-04T01:48:41;9.20;;;8.30;;
2259;SDS011;333;48.800;9.530;2023-06-04T01:51:08;8.83;;;7.93;;
2259;SDS011;333;48.800;9.530;2023-06-04T01:53:35;8.03;;;7.33;;
2259;SDS011;333;48.800;9.530;2023-06-04T01:56:02;7.70;;;7.00;;
2259;SDS011;333;48.800;9.530;2023-06-04T01:58:30;8.90;;;7.73;;
2259;SDS011;333;48.800;9.530;2023-06-04T02:00:57;8.40;;;7.20;;
2259;SDS011;333;48.800;9.530;2023-06-04T02:03:29;8.47;;;7.67;;
2259;SDS011;333;48.800;9.530;2023-06-04T02:06:01;9.37;;;8.47;;
2259;SDS011;333;48.800;9.530;2023-06-04T02:08:29;8.13;;;7.40;;
2259;SDS011;333;48.800;9.530;2023-06-04T02:10:58;8.70;;;7.80;;
2259;SDS011;333;48.800;9.530;2023-06-04T02:13:25;9.43;;;7.87;;
2259;SDS011;333;48.800;9.530;2023-06-04T02:15:52;11.63;;;7.93;;
2259;SDS011;333;48.800;9.530;2023-06-04T02:18:19;13.37;;;8.83;;
2259;SDS011;333;48.800;9.530;2023-06-04T02:20:49;11.60;;;7.60;;
2259;SDS011;333;48.800;9.530;2023-06-04T02:23:16;8.47;;;7.57;;
2259;SDS011;333;48.800;9.530;2023-06-04T02:25:45;8.20;;;7.30;;
2259;SDS011;333;48.800;9.530;2023-06-04T02:28:13;7.33;;;6.73;;
2259;SDS011;333;48.800;9.530;2023-06-04T02:30:41;7.70;;;7.00;;
2259;SDS011;333;48.800;9.530;2023-06-04T02:33:08;8.27;;;7.57;;
2259;SDS011;333;48.800;9.530;2023-06-04T02:35:35;8.73;;;7.93;;
2259;SDS011;333;48.800;9.530;2023-06-04T02:38:04;9.90;;;7.77;;
2259;SDS011;333;48.800;9.530;2023-06-04T02:40:32;8.17;;;7.47;;
2259;SDS011;333;48.800;9.530;2023-06-04T02:42:59;8.83;;;8.03;;
2259;SDS011;333;48.800;9.530;2023-06-04T02:45:26;7.20;;;6.60;;
2259;SDS011;333;48.800;9.530;2023-06-04T02:47:54;7.73;;;6.93;;
2259;SDS011;333;48.800;9.530;2023-06-04T02:50:20;7.40;;;6.80;;
2259;SDS011;333;48.800;9.530;2023-06-04T02:52:48;7.23;;;6.53;;
2259;SDS011;333;48.800;9.530;2023-06-04T02:55:16;12.43;;;7.37;;
2259;SDS011;333;48.800;9.530;2023-06-04T02:57:43;8.23;;;7.43;;
2259;SDS011;333;48.800;9.530;2023-06-04T03:00:10;8.83;;;7.07;;
2259;SDS011;333;48.800;9.530;2023-06-04T03:02:40;7.37;;;6.60;;
2259;SDS011;333;48.800;9.530;2023-06-04T03:05:08;8.50;;;7.50;;
2259;SDS011;333;48.800;9.530;2023-06-04T03:07:38;7.43;;;6.83;;
2259;SDS011;333;48.800;9.530;2023-06-04T03:10:06;7.50;;;6.80;;
2259;SDS011;333;48.800;9.530;2023-06-04T03:12:35;8.70;;;7.20;;
2259;SDS011;333;48.800;9.530;2023-06-04T03:15:03;7.13;;;6.53;;
2259;SDS011;333;48.800;9.530;2023-06-04T03:17:31;6.60;;;5.93;;
2259;SDS011;333;48.800;9.530;2023-06-04T03:19:58;5.83;;;5.33;;
2259;SDS011;333;48.800;9.530;2023-06-04T03:22:25;7.27;;;6.60;;
2259;SDS011;333;48.800;9.530;2023-06-04T03:24:53;8.43;;;7.60;;
2259;SDS011;333;48.800;9.530;2023-06-04T03:27:20;7.70;;;6.87;;
2259;SDS011;333;48.800;9.530;2023-06-04T03:29:48;9.60;;;8.80;;
2259;SDS011;333;48.800;9.530;2023-06-04T03:32:15;7.90;;;6.50;;
2259;SDS011;333;48.800;9.530;2023-06-04T03:34:43;8.10;;;7.40;;
2259;SDS011;333;48.800;9.530;2023-06-04T03:37:10;10.67;;;7.00;;
2259;SDS011;333;48.800;9.530;2023-06-04T03:39:37;9.53;;;8.47;;
2259;SDS011;333;48.800;9.530;2023-06-04T03:42:04;9.33;;;7.20;;
2259;SDS011;333;48.800;9.530;2023-06-04T03:44:31;7.37;;;6.63;;
2259;SDS011;333;48.800;9.530;2023-06-04T03:47:00;7.50;;;6.17;;
2259;SDS011;333;48.800;9.530;2023-06-04T03:49:27;6.77;;;6.17;;
2259;SDS011;333;48.800;9.530;2023-06-04T03:51:54;7.03;;;6.33;;
2259;SDS011;333;48.800;9.530;2023-06-04T03:54:24;7.53;;;6.00;;
2259;SDS011;333;48.800;9.530;2023-06-04T03:56:51;9.47;;;6.63;;
2259;SDS011;333;48.800;9.530;2023-06-04T03:59:18;6.00;;;5.40;;
2259;SDS011;333;48.800;9.530;2023-06-04T04:01:45;10.50;;;6.40;;
2259;SDS011;333;48.800;9.530;2023-06-04T04:04:13;7.60;;;6.90;;
2259;SDS011;333;48.800;9.530;2023-06-04T04:06:40;6.43;;;5.83;;
2259;SDS011;333;48.800;9.530;2023-06-04T04:09:07;6.07;;;5.47;;
2259;SDS011;333;48.800;9.530;2023-06-04T04:11:34;6.40;;;5.80;;
2259;SDS011;333;48.800;9.530;2023-06-04T04:14:01;6.20;;;5.60;;
2259;SDS011;333;48.800;9.530;2023-06-04T04:16:28;5.33;;;4.83;;
2259;SDS011;333;48.800;9.530;2023-06-04T04:18:55;5.57;;;5.07;;
2259;SDS011;333;48.800;9.530;2023-06-04T04:21:24;5.97;;;5.37;;
2259;SDS011;333;48.800;9.530;2023-06-04T04:23:51;5.67;;;5.13;;
2259;SDS011;333;48.800;9.530;2023-06-04T04:26:18;7.63;;;5.33;;
2259;SDS011;333;48.800;9.530;2023-06-04T04:28:45;6.90;;;4.73;;
2259;SDS011;333;48.800;9.530;2023-06-04T04:31:12;5.83;;;5.20;;
2259;SDS011;333;48.800;9.530;2023-06-04T04:33:39;5.50;;;4.93;;
2259;SDS011;333;48.800;9.530;2023-06-04T04:36:07;5.13;;;4.63;;
2259;SDS011;333;48.800;9.530;2023-06-04T04:38:40;5.57;;;4.67;;
2259;SDS011;333;48.800;9.530;2023-06-04T04:41:07;4.73;;;4.33;;
2259;SDS011;333;48.800;9.530;2023-06-04T04:43:35;4.87;;;3.83;;
2259;SDS011;333;48.800;9.530;2023-06-04T04:46:04;5.17;;;4.27;;
2259;SDS011;333;48.800;9.530;2023-06-04T04:48:31;4.03;;;3.63;;
2259;SDS011;333;48.800;9.530;2023-06-04T04:50:59;5.90;;;4.20;;
2259;SDS011;333;48.800;9.530;2023-06-04T04:53:26;4.57;;;4.17;;
2259;SDS011;333;48.800;9.530;2023-06-04T04:55:54;4.23;;;3.83;;
2259;SDS011;333;48.800;9.530;2023-06-04T04:58:21;5.37;;;4.40;;
2259;SDS011;333;48.800;9.530;2023-06-04T05:00:49;4.50;;;3.80;;
2259;SDS011;333;48.800;9.530;2023-06-04T05:03:16;3.73;;;3.20;;
2259;SDS011;333;48.800;9.530;2023-06-04T05:05:43;4.33;;;3.90;;
2259;SDS011;333;48.800;9.530;2023-06-04T05:08:11;3.80;;;3.27;;
2259;SDS011;333;48.800;9.530;2023-06-04T05:10:38;3.53;;;3.13;;
2259;SDS011;333;48.800;9.530;2023-06-04T05:13:06;4.93;;;3.80;;
2259;SDS011;333;48.800;9.530;2023-06-04T05:15:34;4.03;;;3.53;;
2259;SDS011;333;48.800;9.530;2023-06-04T05:18:01;4.23;;;3.33;;
2259;SDS011;333;48.800;9.530;2023-06-04T05:20:28;3.57;;;3.20;;
2259;SDS011;333;48.800;9.530;2023-06-04T05:22:55;3.80;;;3.10;;
2259;SDS011;333;48.800;9.530;2023-06-04T05:25:23;3.20;;;2.93;;
2259;SDS011;333;48.800;9.530;2023-06-04T05:27:52;5.23;;;3.50;;
2259;SDS011;333;48.800;9.530;2023-06-04T05:30:21;3.50;;;3.20;;
2259;SDS011;333;48.800;9.530;2023-06-04T05:32:48;4.37;;;3.17;;
2259;SDS011;333;48.800;9.530;2023-06-04T05:35:16;6.17;;;2.93;;
2259;SDS011;333;48.800;9.530;2023-06-04T05:37:43;2.50;;;2.30;;
2259;SDS011;333;48.800;9.530;2023-06-04T05:40:10;2.77;;;2.47;;
2259;SDS011;333;48.800;9.530;2023-06-04T05:42:38;2.93;;;2.20;;
2259;SDS011;333;48.800;9.530;2023-06-04T05:45:07;3.17;;;2.23;;
2259;SDS011;333;48.800;9.530;2023-06-04T05:47:36;2.97;;;2.50;;
2259;SDS011;333;48.800;9.530;2023-06-04T05:50:04;3.77;;;3.07;;
2259;SDS011;333;48.800;9.530;2023-06-04T05:52:32;3.90;;;2.00;;
2259;SDS011;333;48.800;9.530;2023-06-04T05:54:59;2.47;;;2.17;;
2259;SDS011;333;48.800;9.530;2023-06-04T05:57:26;2.83;;;2.50;;
2259;SDS011;333;48.800;9.530;2023-06-04T05:59:53;3.57;;;2.00;;
2259;SDS011;333;48.800;9.530;2023-06-04T06:02:20;3.33;;;2.53;;
2259;SDS011;333;48.800;9.530;2023-06-04T06:04:48;6.90;;;2.10;;
2259;SDS011;333;48.800;9.530;2023-06-04T06:07:17;5.33;;;2.47;;
2259;SDS011;333;48.800;9.530;2023-06-04T06:09:44;2.90;;;1.90;;
2259;SDS011;333;48.800;9.530;2023-06-04T06:12:11;2.50;;;2.30;;
2259;SDS011;333;48.800;9.530;2023-06-04T06:14:38;2.63;;;2.00;;
2259;SDS011;333;48.800;9.530;2023-06-04T06:17:05;3.80;;;2.80;;
2259;SDS011;333;48.800;9.530;2023-06-04T06:19:32;3.80;;;2.73;;
2259;SDS011;333;48.800;9.530;2023-06-04T06:22:01;4.10;;;2.67;;
2259;SDS011;333;48.800;9.530;2023-06-04T06:24:28;3.73;;;2.60;;
2259;SDS011;333;48.800;9.530;2023-06-04T06:26:55;2.57;;;2.37;;
2259;SDS011;333;48.800;9.530;2023-06-04T06:29:22;2.70;;;2.50;;
2259;SDS011;333;48.800;9.530;2023-06-04T06:31:50;3.17;;;1.97;;
2259;SDS011;333;48.800;9.530;2023-06-04T06:34:17;4.23;;;2.73;;
2259;SDS011;333;48.800;9.530;2023-06-04T06:36:44;4.63;;;2.70;;
2259;SDS011;333;48.800;9.530;2023-06-04T06:39:13;3.23;;;2.40;;
2259;SDS011;333;48.800;9.530;2023-06-04T06:41:40;2.80;;;2.60;;
2259;SDS011;333;48.800;9.530;2023-06-04T06:44:07;2.63;;;2.40;;
2259;SDS011;333;48.800;9.530;2023-06-04T06:46:34;3.70;;;2.53;;
2259;SDS011;333;48.800;9.530;2023-06-04T06:49:01;2.97;;;2.67;;
2259;SDS011;333;48.800;9.530;2023-06-04T06:51:28;4.40;;;2.20;;
2259;SDS011;333;48.800;9.530;2023-06-04T06:53:55;2.50;;;2.30;;
2259;SDS011;333;48.800;9.530;2023-06-04T06:56:23;2.70;;;2.50;;
2259;SDS011;333;48.800;9.530;2023-06-04T06:58:52;3.20;;;2.57;;
2259;SDS011;333;48.800;9.530;2023-06-04T07:01:19;2.40;;;2.20;;
2259;SDS011;333;48.800;9.530;2023-06-04T07:03:46;2.63;;;2.43;;
2259;SDS011;333;48.800;9.530;2023-06-04T07:06:13;2.53;;;2.33;;
2259;SDS011;333;48.800;9.530;2023-06-04T07:08:40;2.83;;;2.40;;
2259;SDS011;333;48.800;9.530;2023-06-04T07:11:07;5.07;;;2.43;;
2259;SDS011;333;48.800;9.530;2023-06-04T07:13:38;3.93;;;2.53;;
2259;SDS011;333;48.800;9.530;2023-06-04T07:16:05;2.90;;;2.60;;
2259;SDS011;333;48.800;9.530;2023-06-04T07:18:32;2.80;;;2.57;;
2259;SDS011;333;48.800;9.530;2023-06-04T07:21:00;5.23;;;3.00;;
2259;SDS011;333;48.800;9.530;2023-06-04T07:23:27;3.17;;;2.83;;
2259;SDS011;333;48.800;9.530;2023-06-04T07:25:53;7.10;;;2.50;;
2259;SDS011;333;48.800;9.530;2023-06-04T07:28:22;3.60;;;3.30;;
2259;SDS011;333;48.800;9.530;2023-06-04T07:30:51;3.60;;;2.80;;
2259;SDS011;333;48.800;9.530;2023-06-04T07:33:18;3.07;;;2.70;;
2259;SDS011;333;48.800;9.530;2023-06-04T07:35:45;3.17;;;2.70;;
2259;SDS011;333;48.800;9.530;2023-06-04T07:38:12;2.57;;;2.40;;
2259;SDS011;333;48.800;9.530;2023-06-04T07:40:39;2.90;;;2.70;;
2259;SDS011;333;48.800;9.530;2023-06-04T07:43:06;3.00;;;2.80;;
2259;SDS011;333;48.800;9.530;2023-06-04T07:45:33;3.43;;;3.00;;
2259;SDS011;333;48.800;9.530;2023-06-04T07:48:01;2.90;;;2.60;;
2259;SDS011;333;48.800;9.530;2023-06-04T07:50:29;3.30;;;3.00;;
2259;SDS011;333;48.800;9.530;2023-06-04T07:52:57;3.77;;;3.13;;
2259;SDS011;333;48.800;9.530;2023-06-04T07:55:23;5.00;;;2.87;;
2259;SDS011;333;48.800;9.530;2023-06-04T07:57:50;3.73;;;3.30;;
2259;SDS011;333;48.800;9.530;2023-06-04T08:00:17;3.83;;;2.70;;
2259;SDS011;333;48.800;9.530;2023-06-04T08:02:44;3.93;;;2.70;;
2259;SDS011;333;48.800;9.530;2023-06-04T08:05:15;7.23;;;3.03;;
2259;SDS011;333;48.800;9.530;2023-06-04T08:07:42;2.90;;;2.70;;
2259;SDS011;333;48.800;9.530;2023-06-04T08:10:09;4.93;;;2.97;;
2259;SDS011;333;48.800;9.530;2023-06-04T08:12:36;4.70;;;3.30;;
2259;SDS011;333;48.800;9.530;2023-06-04T08:15:04;3.53;;;2.73;;
2259;SDS011;333;48.800;9.530;2023-06-04T08:17:32;6.70;;;3.00;;
2259;SDS011;333;48.800;9.530;2023-06-04T08:19:59;3.20;;;2.90;;
2259;SDS011;333;48.800;9.530;2023-06-04T08:22:27;3.77;;;3.37;;
2259;SDS011;333;48.800;9.530;2023-06-04T08:24:55;3.13;;;2.83;;
2259;SDS011;333;48.800;9.530;2023-06-04T08:27:22;4.10;;;3.70;;
2259;SDS011;333;48.800;9.530;2023-06-04T08:29:49;5.30;;;3.30;;
2259;SDS011;333;48.800;9.530;2023-06-04T08:32:17;3.30;;;3.00;;
2259;SDS011;333;48.800;9.530;2023-06-04T08:34:44;3.70;;;3.23;;
2259;SDS011;333;48.800;9.530;2023-06-04T08:37:11;3.37;;;2.73;;
2259;SDS011;333;48.800;9.530;2023-06-04T08:39:39;3.90;;;2.87;;
2259;SDS011;333;48.800;9.530;2023-06-04T08:42:07;4.53;;;3.23;;
2259;SDS011;333;48.800;9.530;2023-06-04T08:44:44;3.60;;;3.00;;
2259;SDS011;333;48.800;9.530;2023-06-04T08:47:12;3.87;;;3.27;;
2259;SDS011;333;48.800;9.530;2023-06-04T08:49:41;3.07;;;2.83;;
2259;SDS011;333;48.800;9.530;2023-06-04T08:52:12;3.00;;;2.80;;
2259;SDS011;333;48.800;9.530;2023-06-04T08:54:40;3.37;;;2.90;;
2259;SDS011;333;48.800;9.530;2023-06-04T08:57:08;4.30;;;3.40;;
2259;SDS011;333;48.800;9.530;2023-06-04T08:59:36;5.10;;;3.10;;
2259;SDS011;333;48.800;9.530;2023-06-04T09:02:03;3.47;;;3.10;;
2259;SDS011;333;48.800;9.530;2023-06-04T09:04:31;4.90;;;3.30;;
2259;SDS011;333;48.800;9.530;2023-06-04T09:06:59;3.63;;;3.30;;
2259;SDS011;333;48.800;9.530;2023-06-04T09:09:28;2.87;;;2.67;;
2259;SDS011;333;48.800;9.530;2023-06-04T09:11:57;3.47;;;3.17;;
2259;SDS011;333;48.800;9.530;2023-06-04T09:14:27;10.40;;;3.20;;
2259;SDS011;333;48.800;9.530;2023-06-04T09:16:55;4.50;;;2.80;;
2259;SDS011;333;48.800;9.530;2023-06-04T09:19:24;3.50;;;3.20;;
2259;SDS011;333;48.800;9.530;2023-06-04T09:21:51;3.90;;;3.00;;
2259;SDS011;333;48.800;9.530;2023-06-04T09:24:19;4.23;;;3.80;;
2259;SDS011;333;48.800;9.530;2023-06-04T09:26:47;7.40;;;3.00;;
2259;SDS011;333;48.800;9.530;2023-06-04T09:29:16;4.13;;;3.60;;
2259;SDS011;333;48.800;9.530;2023-06-04T09:31:44;4.17;;;3.33;;
2259;SDS011;333;48.800;9.530;2023-06-04T09:34:12;2.87;;;2.67;;
2259;SDS011;333;48.800;9.530;2023-06-04T09:36:39;4.97;;;2.90;;
2259;SDS011;333;48.800;9.530;2023-06-04T09:39:14;3.67;;;3.37;;
2259;SDS011;333;48.800;9.530;2023-06-04T09:41:41;3.60;;;3.30;;
2259;SDS011;333;48.800;9.530;2023-06-04T09:44:09;3.60;;;2.80;;
2259;SDS011;333;48.800;9.530;2023-06-04T09:46:38;3.87;;;3.57;;
2259;SDS011;333;48.800;9.530;2023-06-04T09:49:05;4.70;;;3.87;;
2259;SDS011;333;48.800;9.530;2023-06-04T09:51:32;3.90;;;3.60;;
2259;SDS011;333;48.800;9.530;2023-06-04T09:54:02;4.40;;;4.00;;
2259;SDS011;333;48.800;9.530;2023-06-04T09:56:29;4.13;;;3.30;;
2259;SDS011;333;48.800;9.530;2023-06-04T09:59:05;3.43;;;3.20;;
2259;SDS011;333;48.800;9.530;2023-06-04T10:01:34;3.33;;;3.13;;
2259;SDS011;333;48.800;9.530;2023-06-04T10:04:06;4.03;;;3.70;;
2259;SDS011;333;48.800;9.530;2023-06-04T10:06:37;5.33;;;3.37;;
2259;SDS011;333;48.800;9.530;2023-06-04T10:09:06;6.20;;;4.37;;
2259;SDS011;333;48.800;9.530;2023-06-04T10:11:34;5.43;;;3.63;;
2259;SDS011;333;48.800;9.530;2023-06-04T10:14:03;6.83;;;4.13;;
2259;SDS011;333;48.800;9.530;2023-06-04T10:16:33;4.33;;;3.97;;
2259;SDS011;333;48.800;9.530;2023-06-04T10:19:05;3.50;;;3.30;;
2259;SDS011;333;48.800;9.530;2023-06-04T10:21:33;4.10;;;3.80;;
2259;SDS011;333;48.800;9.530;2023-06-04T10:24:03;3.80;;;3.50;;
2259;SDS011;333;48.800;9.530;2023-06-04T10:26:32;3.87;;;3.57;;
2259;SDS011;333;48.800;9.530;2023-06-04T10:29:00;4.60;;;4.20;;
2259;SDS011;333;48.800;9.530;2023-06-04T10:31:28;4.03;;;3.73;;
2259;SDS011;333;48.800;9.530;2023-06-04T10:33:55;3.90;;;3.60;;
2259;SDS011;333;48.800;9.530;2023-06-04T10:36:24;5.20;;;4.70;;
2259;SDS011;333;48.800;9.530;2023-06-04T10:38:52;4.90;;;4.50;;
2259;SDS011;333;48.800;9.530;2023-06-04T10:41:20;4.80;;;4.30;;
2259;SDS011;333;48.800;9.530;2023-06-04T10:43:48;4.50;;;4.10;;
2259;SDS011;333;48.800;9.530;2023-06-04T10:46:16;4.57;;;4.00;;
2259;SDS011;333;48.800;9.530;2023-06-04T10:48:47;3.97;;;3.67;;
2259;SDS011;333;48.800;9.530;2023-06-04T10:51:15;4.70;;;4.40;;
2259;SDS011;333;48.800;9.530;2023-06-04T10:53:44;4.50;;;4.10;;
2259;SDS011;333;48.800;9.530;2023-06-04T10:56:11;4.47;;;4.07;;
2259;SDS011;333;48.800;9.530;2023-06-04T10:58:38;6.50;;;5.30;;
2259;SDS011;333;48.800;9.530;2023-06-04T11:01:05;4.53;;;4.03;;
2259;SDS011;333;48.800;9.530;2023-06-04T11:03:36;4.87;;;4.33;;
2259;SDS011;333;48.800;9.530;2023-06-04T11:06:14;5.23;;;4.67;;
2259;SDS011;333;48.800;9.530;2023-06-04T11:08:41;4.37;;;3.83;;
2259;SDS011;333;48.800;9.530;2023-06-04T11:11:14;4.43;;;4.13;;
2259;SDS011;333;48.800;9.530;2023-06-04T11:13:42;4.33;;;3.93;;
2259;SDS011;333;48.800;9.530;2023-06-04T11:16:14;4.50;;;4.20;;
2259;SDS011;333;48.800;9.530;2023-06-04T11:18:42;4.90;;;4.50;;
2259;SDS011;333;48.800;9.530;2023-06-04T11:21:10;5.50;;;4.30;;
2259;SDS011;333;48.800;9.530;2023-06-04T11:23:40;5.07;;;4.57;;
2259;SDS011;333;48.800;9.530;2023-06-04T11:26:08;4.47;;;3.70;;
2259;SDS011;333;48.800;9.530;2023-06-04T11:28:36;3.97;;;3.63;;
2259;SDS011;333;48.800;9.530;2023-06-04T11:31:05;4.67;;;4.23;;
2259;SDS011;333;48.800;9.530;2023-06-04T11:33:41;5.23;;;4.67;;
2259;SDS011;333;48.800;9.530;2023-06-04T11:36:09;4.80;;;3.80;;
2259;SDS011;333;48.800;9.530;2023-06-04T11:38:36;5.30;;;4.17;;
2259;SDS011;333;48.800;9.530;2023-06-04T11:41:03;4.70;;;3.90;;
2259;SDS011;333;48.800;9.530;2023-06-04T11:43:32;5.03;;;4.53;;
2259;SDS011;333;48.800;9.530;2023-06-04T11:46:06;7.23;;;4.30;;
2259;SDS011;333;48.800;9.530;2023-06-04T11:48:34;4.67;;;4.20;;
2259;SDS011;333;48.800;9.530;2023-06-04T11:51:04;5.27;;;3.83;;
2259;SDS011;333;48.800;9.530;2023-06-04T11:53:35;5.20;;;4.70;;
2259;SDS011;333;48.800;9.530;2023-06-04T11:56:03;4.87;;;4.47;;
2259;SDS011;333;48.800;9.530;2023-06-04T11:58:30;4.43;;;4.03;;
2259;SDS011;333;48.800;9.530;2023-06-04T12:00:59;4.17;;;3.77;;
2259;SDS011;333;48.800;9.530;2023-06-04T12:06:13;4.90;;;4.50;;
2259;SDS011;333;48.800;9.530;2023-06-04T12:08:45;4.90;;;4.50;;
2259;SDS011;333;48.800;9.530;2023-06-04T12:11:23;4.43;;;3.90;;
2259;SDS011;333;48.800;9.530;2023-06-04T12:13:53;4.43;;;4.03;;
2259;SDS011;333;48.800;9.530;2023-06-04T12:16:20;4.60;;;4.20;;
2259;SDS011;333;48.800;9.530;2023-06-04T12:18:48;4.27;;;3.97;;
2259;SDS011;333;48.800;9.530;2023-06-04T12:21:21;3.90;;;3.50;;
2259;SDS011;333;48.800;9.530;2023-06-04T12:23:52;4.60;;;4.20;;
2259;SDS011;333;48.800;9.530;2023-06-04T12:26:21;4.80;;;4.13;;
2259;SDS011;333;48.800;9.530;2023-06-04T12:28:59;4.30;;;4.00;;
2259;SDS011;333;48.800;9.530;2023-06-04T12:31:26;4.43;;;3.90;;
2259;SDS011;333;48.800;9.530;2023-06-04T12:33:58;5.47;;;4.30;;
2259;SDS011;333;48.800;9.530;2023-06-04T12:36:26;4.13;;;3.73;;
2259;SDS011;333;48.800;9.530;2023-06-04T12:38:57;3.90;;;3.60;;
2259;SDS011;333;48.800;9.530;2023-06-04T12:41:25;4.27;;;3.87;;
2259;SDS011;333;48.800;9.530;2023-06-04T12:43:53;4.57;;;4.10;;
2259;SDS011;333;48.800;9.530;2023-06-04T12:46:20;4.80;;;4.40;;
2259;SDS011;333;48.800;9.530;2023-06-04T12:48:48;4.60;;;4.30;;
2259;SDS011;333;48.800;9.530;2023-06-04T12:51:17;5.20;;;4.70;;
2259;SDS011;333;48.800;9.530;2023-06-04T12:53:44;5.20;;;4.80;;
2259;SDS011;333;48.800;9.530;2023-06-04T12:56:11;4.40;;;4.10;;
2259;SDS011;333;48.800;9.530;2023-06-04T12:58:38;5.00;;;4.50;;
2259;SDS011;333;48.800;9.530;2023-06-04T13:01:05;4.37;;;4.07;;
2259;SDS011;333;48.800;9.530;2023-06-04T13:03:33;5.33;;;4.30;;
2259;SDS011;333;48.800;9.530;2023-06-04T13:06:02;4.83;;;4.33;;
2259;SDS011;333;48.800;9.530;2023-06-04T13:08:32;4.10;;;3.80;;
2259;SDS011;333;48.800;9.530;2023-06-04T13:10:59;4.97;;;4.57;;
2259;SDS011;333;48.800;9.530;2023-06-04T13:13:27;5.03;;;4.63;;
2259;SDS011;333;48.800;9.530;2023-06-04T13:15:54;5.10;;;4.60;;
2259;SDS011;333;48.800;9.530;2023-06-04T13:18:21;4.93;;;4.53;;
2259;SDS011;333;48.800;9.530;2023-06-04T13:20:49;4.53;;;4.13;;
2259;SDS011;333;48.800;9.530;2023-06-04T13:23:16;4.80;;;4.40;;
2259;SDS011;333;48.800;9.530;2023-06-04T13:25:44;4.40;;;4.10;;
2259;SDS011;333;48.800;9.530;2023-06-04T13:28:11;4.63;;;4.23;;
2259;SDS011;333;48.800;9.530;2023-06-04T13:30:38;4.13;;;3.63;;
2259;SDS011;333;48.800;9.530;2023-06-04T13:33:05;5.00;;;4.60;;
2259;SDS011;333;48.800;9.530;2023-06-04T13:35:33;4.70;;;3.70;;
2259;SDS011;333;48.800;9.530;2023-06-04T13:38:01;4.37;;;3.77;;
2259;SDS011;333;48.800;9.530;2023-06-04T13:40:30;4.50;;;4.03;;
2259;SDS011;333;48.800;9.530;2023-06-04T13:42:59;5.07;;;4.57;;
2259;SDS011;333;48.800;9.530;2023-06-04T13:45:26;4.73;;;4.33;;
2259;SDS011;333;48.800;9.530;2023-06-04T13:47:53;4.60;;;4.07;;
2259;SDS011;333;48.800;9.530;2023-06-04T13:50:20;6.30;;;4.07;;
2259;SDS011;333;48.800;9.530;2023-06-04T13:52:47;6.90;;;4.93;;
2259;SDS011;333;48.800;9.530;2023-06-04T13:55:14;4.50;;;4.03;;
2259;SDS011;333;48.800;9.530;2023-06-04T13:57:41;4.30;;;3.90;;
2259;SDS011;333;48.800;9.530;2023-06-04T14:00:10;5.00;;;4.23;;
2259;SDS011;333;48.800;9.530;2023-06-04T14:02:38;5.43;;;3.90;;
2259;SDS011;333;48.800;9.530;2023-06-04T14:05:05;3.83;;;3.53;;
2259;SDS011;333;48.800;9.530;2023-06-04T14:07:33;4.90;;;4.50;;
2259;SDS011;333;48.800;9.530;2023-06-04T14:10:00;5.17;;;4.50;;
2259;SDS011;333;48.800;9.530;2023-06-04T14:12:27;4.77;;;4.33;;
2259;SDS011;333;48.800;9.530;2023-06-04T14:14:54;5.10;;;4.60;;
2259;SDS011;333;48.800;9.530;2023-06-04T14:17:23;6.17;;;4.53;;
2259;SDS011;333;48.800;9.530;2023-06-04T14:19:50;4.77;;;4.47;;
2259;SDS011;333;48.800;9.530;2023-06-04T14:22:17;4.90;;;4.40;;
2259;SDS011;333;48.800;9.530;2023-06-04T14:24:44;4.93;;;4.50;;
2259;SDS011;333;48.800;9.530;2023-06-04T14:27:11;4.10;;;3.80;;
2259;SDS011;333;48.800;9.530;2023-06-04T14:29:38;4.03;;;3.73;;
2259;SDS011;333;48.800;9.530;2023-06-04T14:32:05;4.20;;;3.90;;
2259;SDS011;333;48.800;9.530;2023-06-04T14:34:33;4.83;;;4.33;;
2259;SDS011;333;48.800;9.530;2023-06-04T14:37:01;4.80;;;4.50;;
2259;SDS011;333;48.800;9.530;2023-06-04T14:39:27;4.73;;;4.33;;
2259;SDS011;333;48.800;9.530;2023-06-04T14:41:55;4.27;;;3.90;;
2259;SDS011;333;48.800;9.530;2023-06-04T14:44:22;6.13;;;3.77;;
2259;SDS011;333;48.800;9.530;2023-06-04T14:46:49;5.23;;;4.73;;
2259;SDS011;333;48.800;9.530;2023-06-04T14:49:17;4.13;;;3.83;;
2259;SDS011;333;48.800;9.530;2023-06-04T14:51:46;3.53;;;3.23;;
2259;SDS011;333;48.800;9.530;2023-06-04T14:54:13;4.07;;;3.67;;
2259;SDS011;333;48.800;9.530;2023-06-04T14:56:40;4.30;;;3.90;;
2259;SDS011;333;48.800;9.530;2023-06-04T14:59:07;4.63;;;4.10;;
2259;SDS011;333;48.800;9.530;2023-06-04T15:01:36;5.13;;;3.90;;
2259;SDS011;333;48.800;9.530;2023-06-04T15:04:03;4.00;;;3.70;;
2259;SDS011;333;48.800;9.530;2023-06-04T15:06:31;4.43;;;4.13;;
2259;SDS011;333;48.800;9.530;2023-06-04T15:08:59;4.53;;;4.13;;
2259;SDS011;333;48.800;9.530;2023-06-04T15:11:26;4.97;;;4.40;;
2259;SDS011;333;48.800;9.530;2023-06-04T15:13:53;6.07;;;3.80;;
2259;SDS011;333;48.800;9.530;2023-06-04T15:16:20;4.00;;;3.70;;
2259;SDS011;333;48.800;9.530;2023-06-04T15:18:48;4.63;;;4.23;;
2259;SDS011;333;48.800;9.530;2023-06-04T15:21:15;3.80;;;3.50;;
2259;SDS011;333;48.800;9.530;2023-06-04T15:23:42;4.60;;;3.17;;
2259;SDS011;333;48.800;9.530;2023-06-04T15:26:14;4.37;;;3.97;;
2259;SDS011;333;48.800;9.530;2023-06-04T15:28:42;3.60;;;3.30;;
2259;SDS011;333;48.800;9.530;2023-06-04T15:31:10;3.50;;;3.30;;
2259;SDS011;333;48.800;9.530;2023-06-04T15:33:37;6.90;;;4.20;;
2259;SDS011;333;48.800;9.530;2023-06-04T15:36:04;8.63;;;3.90;;
2259;SDS011;333;48.800;9.530;2023-06-04T15:38:31;4.43;;;4.03;;